createdAt,value
2022-07-27T00:00:57.794Z,17.20
2022-07-27T00:03:25.096Z,17.20
2022-07-27T00:05:52.091Z,17.20
2022-07-27T00:08:24.097Z,17.20
2022-07-27T00:10:52.822Z,17.20
2022-07-27T00:13:20.195Z,17.10
2022-07-27T00:15:47.283Z,17.10
2022-07-27T00:18:14.302Z,17.10
2022-07-27T00:20:41.809Z,17.10
2022-07-27T00:23:09.145Z,17.10
2022-07-27T00:25:36.532Z,17.10
2022-07-27T00:28:04.235Z,17.10
2022-07-27T00:30:31.226Z,17.10
2022-07-27T00:32:58.352Z,17.10
2022-07-27T00:35:25.642Z,17.10
2022-07-27T00:37:52.762Z,17.00
2022-07-27T00:40:19.775Z,17.00
2022-07-27T00:42:46.771Z,17.10
2022-07-27T00:45:14.280Z,17.10
2022-07-27T00:47:41.331Z,17.10
2022-07-27T00:50:09.218Z,17.10
2022-07-27T00:52:37.865Z,17.10
2022-07-27T00:55:05.957Z,17.00
2022-07-27T00:57:33.358Z,17.00
2022-07-27T01:00:21.501Z,16.90
2022-07-27T01:02:51.722Z,16.90
2022-07-27T01:05:18.986Z,16.80
2022-07-27T01:07:49.231Z,16.80
2022-07-27T01:10:17.323Z,16.80
2022-07-27T01:12:46.000Z,16.70
2022-07-27T01:15:13.492Z,16.70
2022-07-27T01:17:40.460Z,16.70
2022-07-27T01:20:07.937Z,16.70
2022-07-27T01:22:34.936Z,16.70
2022-07-27T01:25:01.884Z,16.80
2022-07-27T01:27:28.893Z,16.80
2022-07-27T01:29:55.867Z,16.80
2022-07-27T01:32:22.805Z,16.70
2022-07-27T01:34:50.000Z,16.70
2022-07-27T01:37:17.474Z,16.70
2022-07-27T01:39:44.576Z,16.70
2022-07-27T01:42:11.561Z,16.80
2022-07-27T01:44:38.577Z,16.80
2022-07-27T01:47:14.423Z,16.80
2022-07-27T01:49:41.772Z,16.80
2022-07-27T01:52:08.807Z,16.80
2022-07-27T01:54:35.764Z,16.80
2022-07-27T01:57:02.774Z,16.80
2022-07-27T01:59:29.708Z,16.80
2022-07-27T02:01:56.732Z,16.70
2022-07-27T02:04:25.398Z,16.70
2022-07-27T02:06:52.336Z,16.70
2022-07-27T02:09:21.012Z,16.70
2022-07-27T02:12:06.440Z,16.60
2022-07-27T02:14:33.374Z,16.60
2022-07-27T02:17:00.512Z,16.70
2022-07-27T02:19:28.465Z,16.70
2022-07-27T02:21:55.470Z,16.70
2022-07-27T02:24:22.520Z,16.70
2022-07-27T02:26:49.740Z,16.80
2022-07-27T02:29:16.769Z,16.70
2022-07-27T02:31:43.814Z,16.70
2022-07-27T02:34:10.811Z,16.80
2022-07-27T02:36:37.771Z,16.70
2022-07-27T02:39:04.952Z,16.80
2022-07-27T02:41:31.925Z,16.70
2022-07-27T02:43:58.883Z,16.70
2022-07-27T02:46:25.870Z,16.70
2022-07-27T02:48:53.013Z,16.60
2022-07-27T02:51:20.033Z,16.70
2022-07-27T02:53:47.178Z,16.70
2022-07-27T02:56:14.207Z,16.70
2022-07-27T02:58:41.184Z,16.70
2022-07-27T03:01:08.277Z,16.70
2022-07-27T03:03:36.702Z,16.70
2022-07-27T03:06:06.363Z,16.70
2022-07-27T03:08:33.900Z,16.70
2022-07-27T03:11:00.920Z,16.80
2022-07-27T03:13:29.201Z,16.80
2022-07-27T03:15:56.892Z,16.70
2022-07-27T03:18:24.116Z,16.70
2022-07-27T03:20:51.231Z,16.80
2022-07-27T03:23:19.161Z,16.80
2022-07-27T03:25:46.178Z,16.70
2022-07-27T03:28:13.125Z,16.70
2022-07-27T03:30:40.138Z,16.70
2022-07-27T03:33:07.599Z,16.70
2022-07-27T03:35:34.720Z,16.70
2022-07-27T03:38:01.780Z,16.70
2022-07-27T03:40:33.041Z,16.60
2022-07-27T03:43:00.906Z,16.60
2022-07-27T03:45:28.459Z,16.60
2022-07-27T03:47:55.537Z,16.50
2022-07-27T03:50:23.445Z,16.50
2022-07-27T03:52:52.198Z,16.50
2022-07-27T03:55:22.493Z,16.50
2022-07-27T03:57:50.984Z,16.50
2022-07-27T04:00:18.558Z,16.70
2022-07-27T04:02:45.770Z,16.90
2022-07-27T04:05:13.580Z,17.00
2022-07-27T04:07:40.835Z,17.10
2022-07-27T04:10:09.355Z,17.40
2022-07-27T04:12:38.293Z,17.60
2022-07-27T04:15:07.536Z,17.50
2022-07-27T04:17:56.164Z,17.30
2022-07-27T04:20:21.730Z,17.20
2022-07-27T04:22:48.994Z,17.00
2022-07-27T04:25:15.930Z,16.90
2022-07-27T04:27:42.860Z,16.80
2022-07-27T04:30:10.457Z,16.70
2022-07-27T04:32:37.513Z,16.60
2022-07-27T04:35:06.232Z,16.60
2022-07-27T04:37:33.615Z,16.60
2022-07-27T04:40:01.223Z,16.70
2022-07-27T04:42:30.201Z,16.90
2022-07-27T04:44:57.459Z,16.90
2022-07-27T04:47:24.391Z,16.90
2022-07-27T04:49:51.479Z,16.90
2022-07-27T04:52:18.823Z,16.90
2022-07-27T04:54:59.452Z,16.90
2022-07-27T04:57:26.455Z,16.90
2022-07-27T04:59:59.905Z,17.10
2022-07-27T05:02:28.480Z,17.40
2022-07-27T05:05:00.540Z,19.00
2022-07-27T05:07:27.612Z,18.80
2022-07-27T05:09:54.590Z,19.50
2022-07-27T05:12:21.480Z,20.30
2022-07-27T05:14:48.399Z,20.60
2022-07-27T05:17:15.596Z,20.90
2022-07-27T05:19:42.584Z,21.30
2022-07-27T05:22:10.644Z,20.90
2022-07-27T05:24:37.617Z,20.00
2022-07-27T05:27:06.114Z,19.60
2022-07-27T05:29:33.310Z,19.50
2022-07-27T05:32:00.461Z,19.40
2022-07-27T05:34:27.504Z,19.10
2022-07-27T05:36:55.809Z,18.80
2022-07-27T05:39:24.289Z,18.80
2022-07-27T05:41:51.237Z,19.00
2022-07-27T05:44:18.189Z,19.10
2022-07-27T05:46:45.260Z,19.10
2022-07-27T05:49:13.145Z,19.00
2022-07-27T05:51:40.450Z,18.70
2022-07-27T05:54:08.156Z,18.50
2022-07-27T05:56:36.481Z,18.30
2022-07-27T05:59:06.983Z,18.20
2022-07-27T06:01:34.652Z,17.90
2022-07-27T06:04:01.751Z,17.90
2022-07-27T06:06:47.209Z,17.90
2022-07-27T06:09:14.770Z,18.00
2022-07-27T06:11:42.228Z,17.90
2022-07-27T06:14:09.884Z,17.90
2022-07-27T06:16:37.103Z,17.90
2022-07-27T06:19:04.184Z,18.00
2022-07-27T06:21:31.920Z,18.10
2022-07-27T06:24:02.614Z,18.20
2022-07-27T06:31:49.289Z,18.00
2022-07-27T06:36:45.192Z,18.00
2022-07-27T06:39:13.512Z,18.00
2022-07-27T06:41:41.085Z,18.00
2022-07-27T06:44:08.043Z,18.00
2022-07-27T06:46:35.927Z,18.10
2022-07-27T06:49:03.108Z,18.30
2022-07-27T06:51:30.122Z,18.40
2022-07-27T06:53:57.764Z,18.70
2022-07-27T06:56:24.952Z,18.90
2022-07-27T06:58:52.110Z,19.00
2022-07-27T07:01:19.225Z,19.10
2022-07-27T07:03:46.326Z,19.20
2022-07-27T07:06:13.352Z,19.20
2022-07-27T07:08:40.413Z,19.10
2022-07-27T07:11:09.272Z,19.10
2022-07-27T07:13:39.258Z,19.00
2022-07-27T07:16:08.547Z,18.80
2022-07-27T07:18:35.596Z,18.70
2022-07-27T07:21:02.858Z,18.60
2022-07-27T07:23:30.357Z,18.70
2022-07-27T07:25:57.283Z,18.80
2022-07-27T07:28:24.234Z,18.90
2022-07-27T07:30:51.257Z,19.00
2022-07-27T07:33:18.410Z,19.00
2022-07-27T07:36:13.354Z,18.90
2022-07-27T07:38:33.564Z,18.90
2022-07-27T07:41:00.608Z,19.10
2022-07-27T07:43:27.832Z,19.40
2022-07-27T07:45:55.403Z,19.60
2022-07-27T07:48:22.972Z,19.70
2022-07-27T07:50:53.395Z,20.00
2022-07-27T07:53:23.584Z,20.30
2022-07-27T07:55:52.373Z,20.40
2022-07-27T07:58:20.181Z,20.20
2022-07-27T08:00:47.334Z,19.90
2022-07-27T08:03:15.878Z,19.50
2022-07-27T08:05:43.144Z,19.10
2022-07-27T08:08:10.154Z,18.80
2022-07-27T08:10:37.386Z,18.60
2022-07-27T08:13:04.850Z,18.50
2022-07-27T08:15:35.118Z,18.40
2022-07-27T08:18:05.275Z,18.50
2022-07-27T08:20:32.505Z,18.70
2022-07-27T08:22:59.653Z,18.90
2022-07-27T08:25:26.720Z,19.20
2022-07-27T08:27:55.484Z,19.30
2022-07-27T08:30:25.798Z,19.50
2022-07-27T08:32:58.499Z,19.50
2022-07-27T08:35:26.669Z,19.40
2022-07-27T08:37:54.601Z,19.40
2022-07-27T08:43:10.365Z,20.20
2022-07-27T08:45:37.889Z,20.20
2022-07-27T08:48:05.894Z,20.40
2022-07-27T08:50:35.171Z,20.60
2022-07-27T08:53:05.645Z,20.90
2022-07-27T08:55:35.727Z,20.90
2022-07-27T08:58:04.101Z,20.70
2022-07-27T09:00:31.883Z,20.40
2022-07-27T09:02:59.050Z,19.90
2022-07-27T09:05:27.664Z,19.70
2022-07-27T09:08:16.213Z,19.50
2022-07-27T09:10:44.225Z,19.50
2022-07-27T09:13:27.610Z,19.60
2022-07-27T09:16:18.704Z,19.80
2022-07-27T09:18:45.652Z,20.00
2022-07-27T09:21:14.297Z,20.10
2022-07-27T09:23:52.664Z,20.10
2022-07-27T09:26:34.119Z,20.20
2022-07-27T09:29:07.845Z,20.10
2022-07-27T09:32:01.337Z,20.10
2022-07-27T09:34:31.060Z,19.90
2022-07-27T09:36:59.756Z,20.10
2022-07-27T09:39:28.650Z,20.00
2022-07-27T09:42:05.195Z,19.70
2022-07-27T09:44:43.771Z,19.50
2022-07-27T09:47:28.371Z,19.40
2022-07-27T09:49:58.267Z,19.40
2022-07-27T09:52:29.945Z,19.60
2022-07-27T09:55:05.448Z,19.70
2022-07-27T09:57:50.956Z,19.50
2022-07-27T10:00:18.499Z,19.20
2022-07-27T10:02:45.776Z,18.80
2022-07-27T10:05:14.406Z,18.70
2022-07-27T10:07:41.384Z,18.50
2022-07-27T10:10:09.525Z,18.50
2022-07-27T10:12:36.616Z,18.50
2022-07-27T10:15:04.150Z,18.70
2022-07-27T10:17:31.441Z,19.10
2022-07-27T10:19:58.654Z,19.30
2022-07-27T10:22:52.191Z,19.50
2022-07-27T10:25:20.411Z,19.80
2022-07-27T10:27:49.525Z,19.80
2022-07-27T10:30:17.754Z,19.40
2022-07-27T10:32:51.993Z,18.90
2022-07-27T10:35:45.472Z,18.50
2022-07-27T10:38:18.529Z,18.10
2022-07-27T10:40:45.785Z,18.00
2022-07-27T10:43:23.164Z,17.90
2022-07-27T10:46:01.886Z,18.00
2022-07-27T10:48:47.889Z,18.20
2022-07-27T10:51:16.587Z,18.30
2022-07-27T10:56:47.896Z,18.70
2022-07-27T10:59:15.931Z,18.80
2022-07-27T11:02:10.273Z,18.90
2022-07-27T11:04:50.033Z,19.10
2022-07-27T11:07:30.061Z,19.20
2022-07-27T11:10:04.401Z,19.50
2022-07-27T11:12:32.111Z,19.70
2022-07-27T11:15:01.187Z,19.90
2022-07-27T11:17:54.725Z,20.10
2022-07-27T11:20:22.751Z,20.20
2022-07-27T11:23:40.753Z,20.30
2022-07-27T11:25:38.160Z,20.40
2022-07-27T11:28:09.736Z,20.40
2022-07-27T11:30:37.365Z,20.30
2022-07-27T11:33:05.033Z,20.30
2022-07-27T11:35:32.061Z,20.20
2022-07-27T11:38:01.200Z,20.20
2022-07-27T11:40:56.058Z,19.90
2022-07-27T11:43:45.169Z,19.60
2022-07-27T11:46:33.400Z,19.40
2022-07-27T11:49:08.972Z,18.90
2022-07-27T11:51:48.033Z,18.90
2022-07-27T11:54:24.735Z,19.30
2022-07-27T11:56:57.509Z,19.70
2022-07-27T11:59:31.094Z,19.70
2022-07-27T12:01:59.827Z,19.50
2022-07-27T12:04:38.361Z,19.20
2022-07-27T12:07:17.251Z,18.90
2022-07-27T12:09:49.295Z,18.80
2022-07-27T12:12:21.879Z,18.90
2022-07-27T12:14:56.704Z,19.10
2022-07-27T12:17:34.984Z,19.30
2022-07-27T12:20:08.580Z,19.40
2022-07-27T12:22:46.191Z,19.50
2022-07-27T12:25:19.654Z,19.60
2022-07-27T12:28:06.903Z,19.80
2022-07-27T12:30:38.011Z,20.00
2022-07-27T12:33:07.719Z,19.90
2022-07-27T12:35:47.300Z,19.70
2022-07-27T12:38:14.934Z,19.50
2022-07-27T12:41:01.250Z,19.40
2022-07-27T12:43:28.757Z,19.50
2022-07-27T12:45:56.324Z,19.40
2022-07-27T12:48:37.811Z,19.20
2022-07-27T12:51:07.434Z,19.20
2022-07-27T12:53:36.747Z,19.20
2022-07-27T12:56:13.664Z,19.30
2022-07-27T12:58:57.169Z,19.50
2022-07-27T13:01:24.369Z,19.30
2022-07-27T13:03:51.416Z,19.00
2022-07-27T13:06:18.369Z,18.70
2022-07-27T13:08:45.335Z,18.50
2022-07-27T13:11:13.904Z,18.40
2022-07-27T13:13:41.334Z,18.30
2022-07-27T13:16:08.327Z,18.30
2022-07-27T13:18:35.368Z,18.50
2022-07-27T13:21:02.417Z,18.80
2022-07-27T13:23:29.676Z,19.00
2022-07-27T13:25:56.836Z,19.00
2022-07-27T13:28:24.893Z,18.80
2022-07-27T13:30:52.354Z,18.60
2022-07-27T13:33:19.392Z,18.60
2022-07-27T13:35:47.570Z,18.50
2022-07-27T13:38:26.102Z,18.40
2022-07-27T13:40:53.112Z,18.40
2022-07-27T13:43:20.187Z,18.40
2022-07-27T13:45:47.257Z,18.40
2022-07-27T13:48:14.662Z,18.00
2022-07-27T13:50:41.661Z,17.80
2022-07-27T13:53:09.063Z,17.60
2022-07-27T13:55:36.064Z,17.30
2022-07-27T13:58:03.289Z,17.20
2022-07-27T14:00:30.344Z,17.00
2022-07-27T14:02:57.490Z,17.10
2022-07-27T14:05:24.618Z,17.30
2022-07-27T14:07:53.951Z,17.50
2022-07-27T14:10:33.012Z,17.50
2022-07-27T14:13:07.733Z,17.50
2022-07-27T14:15:35.928Z,17.50
2022-07-27T14:18:21.064Z,17.50
2022-07-27T14:20:48.127Z,17.40
2022-07-27T14:23:15.086Z,17.20
2022-07-27T14:25:42.009Z,17.10
2022-07-27T14:28:09.109Z,16.90
2022-07-27T14:30:36.330Z,16.80
2022-07-27T14:33:03.552Z,16.80
2022-07-27T14:35:30.708Z,17.00
2022-07-27T14:38:00.267Z,17.00
2022-07-27T14:40:27.752Z,17.10
2022-07-27T14:42:54.752Z,17.10
2022-07-27T14:45:22.113Z,17.10
2022-07-27T14:47:49.150Z,17.20
2022-07-27T14:50:16.397Z,17.20
2022-07-27T14:52:43.465Z,17.00
2022-07-27T14:55:11.582Z,16.90
2022-07-27T14:57:38.780Z,16.80
2022-07-27T15:00:10.452Z,16.50
2022-07-27T15:02:38.298Z,16.40
2022-07-27T15:05:06.771Z,16.40
2022-07-27T15:07:34.712Z,16.50
2022-07-27T15:10:03.056Z,16.60
2022-07-27T15:12:30.499Z,16.80
2022-07-27T15:14:59.921Z,17.00
2022-07-27T15:17:27.247Z,17.10
2022-07-27T15:19:54.266Z,17.20
2022-07-27T15:22:21.283Z,17.30
2022-07-27T15:24:52.930Z,17.30
2022-07-27T15:27:20.820Z,17.40
2022-07-27T15:29:47.920Z,17.30
2022-07-27T15:32:15.109Z,17.40
2022-07-27T15:34:44.016Z,17.40
2022-07-27T15:37:11.093Z,17.50
2022-07-27T15:39:40.038Z,17.50
2022-07-27T15:42:08.228Z,17.50
2022-07-27T15:44:36.277Z,17.40
2022-07-27T15:47:04.350Z,17.50
2022-07-27T15:49:31.578Z,17.50
2022-07-27T15:51:58.597Z,17.60
2022-07-27T15:54:27.999Z,17.50
2022-07-27T15:56:57.095Z,17.40
2022-07-27T15:59:24.116Z,17.30
2022-07-27T16:01:51.169Z,17.20
2022-07-27T16:04:20.861Z,17.00
2022-07-27T16:06:47.970Z,17.00
2022-07-27T16:09:15.382Z,16.90
2022-07-27T16:11:42.801Z,16.90
2022-07-27T16:14:09.904Z,16.90
2022-07-27T16:16:36.949Z,16.80
2022-07-27T16:19:13.390Z,16.60
2022-07-27T16:21:54.262Z,16.50
2022-07-27T16:24:26.675Z,16.40
2022-07-27T16:26:54.076Z,16.40
2022-07-27T16:29:21.203Z,16.50
2022-07-27T16:31:48.320Z,16.50
2022-07-27T16:34:15.350Z,16.50
2022-07-27T16:36:42.313Z,16.60
2022-07-27T16:39:10.958Z,16.60
2022-07-27T16:41:38.323Z,16.70
2022-07-27T16:44:05.576Z,16.70
2022-07-27T16:46:32.666Z,16.70
2022-07-27T16:48:59.732Z,16.70
2022-07-27T16:51:27.015Z,16.70
2022-07-27T16:53:53.934Z,16.70
2022-07-27T16:56:21.020Z,16.70
2022-07-27T16:58:48.199Z,16.80
2022-07-27T17:01:26.501Z,16.80
2022-07-27T17:03:57.061Z,16.80
2022-07-27T17:06:27.310Z,16.80
2022-07-27T17:08:54.940Z,16.80
2022-07-27T17:16:37.456Z,16.40
2022-07-27T17:19:04.460Z,16.40
2022-07-27T17:27:23.471Z,16.30
2022-07-27T17:29:51.826Z,16.30
2022-07-27T17:32:19.088Z,16.30
2022-07-27T17:34:46.161Z,16.40
2022-07-27T17:37:13.312Z,16.40
2022-07-27T17:39:40.337Z,16.40
2022-07-27T17:42:07.779Z,16.30
2022-07-27T17:44:39.361Z,16.40
2022-07-27T17:47:17.931Z,16.40
2022-07-27T17:49:45.945Z,16.30
2022-07-27T17:52:38.196Z,16.30
2022-07-27T17:55:06.110Z,16.40
2022-07-27T17:57:33.315Z,16.40
2022-07-27T18:00:00.314Z,16.40
2022-07-27T18:02:27.534Z,16.40
2022-07-27T18:04:54.597Z,16.30
2022-07-27T18:07:21.616Z,16.30
2022-07-27T18:09:48.739Z,16.30
2022-07-27T18:12:21.510Z,16.30
2022-07-27T18:15:08.167Z,16.30
2022-07-27T18:17:39.027Z,16.20
2022-07-27T18:20:10.589Z,16.20
2022-07-27T18:22:38.612Z,16.20
2022-07-27T18:25:07.541Z,16.20
2022-07-27T18:27:35.714Z,16.20
2022-07-27T18:30:05.358Z,16.30
2022-07-27T18:32:33.585Z,16.30
2022-07-27T18:35:05.470Z,16.30
2022-07-27T18:37:32.454Z,16.30
2022-07-27T18:39:59.485Z,16.30
2022-07-27T18:42:26.494Z,16.30
2022-07-27T18:44:53.569Z,16.20
2022-07-27T18:47:20.802Z,16.10
2022-07-27T18:49:47.819Z,16.00
2022-07-27T18:52:19.397Z,15.90
2022-07-27T18:54:46.317Z,15.90
2022-07-27T18:57:17.648Z,15.90
2022-07-27T18:59:44.643Z,15.90
2022-07-27T19:02:11.659Z,15.90
2022-07-27T19:04:38.902Z,15.90
2022-07-27T19:07:09.216Z,16.00
2022-07-27T19:09:36.993Z,16.00
2022-07-27T19:12:09.369Z,16.00
2022-07-27T19:14:37.385Z,16.10
2022-07-27T19:17:05.115Z,16.10
2022-07-27T19:19:32.563Z,16.10
2022-07-27T19:22:00.549Z,16.10
2022-07-27T19:24:27.509Z,16.10
2022-07-27T19:26:54.505Z,16.10
2022-07-27T19:29:22.879Z,16.10
2022-07-27T19:31:50.487Z,16.10
2022-07-27T19:34:18.543Z,16.20
2022-07-27T19:36:46.052Z,16.10
2022-07-27T19:39:16.513Z,16.10
2022-07-27T19:41:43.664Z,16.10
2022-07-27T19:44:10.708Z,16.10
2022-07-27T19:46:38.586Z,16.10
2022-07-27T19:49:05.985Z,16.10
2022-07-27T19:51:32.995Z,16.10
2022-07-27T19:54:00.204Z,16.00
2022-07-27T19:56:27.255Z,16.00
2022-07-27T19:58:54.338Z,16.00
2022-07-27T20:01:22.616Z,16.00
2022-07-27T20:03:53.993Z,16.00
2022-07-27T20:06:25.523Z,16.00
2022-07-27T20:08:56.243Z,16.00
2022-07-27T20:11:23.517Z,16.10
2022-07-27T20:13:50.578Z,16.00
2022-07-27T20:16:18.238Z,16.00
2022-07-27T20:18:45.350Z,16.00
2022-07-27T20:21:22.546Z,16.00
2022-07-27T20:23:52.320Z,16.00
2022-07-27T20:26:20.313Z,16.10
2022-07-27T20:28:50.084Z,16.00
2022-07-27T20:31:17.747Z,16.00
2022-07-27T20:33:44.913Z,16.00
2022-07-27T20:36:19.326Z,16.00
2022-07-27T20:38:46.479Z,16.00
2022-07-27T20:41:16.453Z,16.00
2022-07-27T20:43:43.515Z,16.00
2022-07-27T20:46:10.613Z,16.00
2022-07-27T20:48:39.181Z,16.10
2022-07-27T20:51:06.200Z,16.10
2022-07-27T20:53:33.206Z,16.10
2022-07-27T20:56:00.121Z,16.00
2022-07-27T20:58:27.163Z,16.10
2022-07-27T21:03:38.490Z,16.00
2022-07-27T21:06:05.567Z,15.90
2022-07-27T21:08:32.683Z,15.80
2022-07-27T21:10:59.831Z,15.70
2022-07-27T21:13:27.286Z,15.60
2022-07-27T21:15:54.242Z,15.50
2022-07-27T21:18:21.267Z,15.40
2022-07-27T21:20:48.410Z,15.40
2022-07-27T21:23:36.776Z,15.40
2022-07-27T21:26:03.853Z,15.40
2022-07-27T21:28:30.869Z,15.40
2022-07-27T21:30:59.262Z,15.40
2022-07-27T21:33:26.256Z,15.40
2022-07-27T21:35:53.259Z,15.40
2022-07-27T21:38:20.286Z,15.50
2022-07-27T21:40:47.270Z,15.50
2022-07-27T21:43:17.316Z,15.60
2022-07-27T21:45:49.553Z,15.50
2022-07-27T21:48:17.182Z,15.50
2022-07-27T21:50:44.158Z,15.50
2022-07-27T21:53:11.135Z,15.50
2022-07-27T21:55:40.211Z,15.50
2022-07-27T21:58:07.446Z,15.50
2022-07-27T22:00:34.432Z,15.40
2022-07-27T22:03:01.365Z,15.40
2022-07-27T22:05:28.347Z,15.40
2022-07-27T22:07:55.325Z,15.40
2022-07-27T22:10:22.447Z,15.50
2022-07-27T22:12:49.435Z,15.50
2022-07-27T22:15:16.416Z,15.50
2022-07-27T22:17:49.834Z,15.50
2022-07-27T22:20:18.108Z,15.60
2022-07-27T22:22:45.278Z,15.60
2022-07-27T22:25:12.335Z,15.60
2022-07-27T22:27:39.317Z,15.70
2022-07-27T22:30:07.179Z,15.70
2022-07-27T22:32:34.679Z,15.70
2022-07-27T22:35:01.837Z,15.70
2022-07-27T22:37:28.916Z,15.70
2022-07-27T22:39:55.872Z,15.70
2022-07-27T22:42:22.904Z,15.80
2022-07-27T22:44:50.006Z,15.80
2022-07-27T22:47:16.990Z,15.90
2022-07-27T22:49:44.198Z,15.90
2022-07-27T22:52:11.149Z,16.00
2022-07-27T22:54:38.716Z,15.90
2022-07-27T22:57:06.595Z,15.90
2022-07-27T22:59:34.945Z,16.00
2022-07-27T23:02:02.297Z,15.90
2022-07-27T23:04:29.539Z,15.90
2022-07-27T23:06:57.320Z,16.00
2022-07-27T23:09:24.505Z,16.00
2022-07-27T23:11:52.083Z,16.00
2022-07-27T23:14:19.305Z,16.00
2022-07-27T23:16:46.612Z,16.00
2022-07-27T23:21:42.552Z,15.90
2022-07-27T23:24:13.502Z,16.00
2022-07-27T23:26:57.846Z,16.00
2022-07-27T23:29:25.832Z,16.00
2022-07-27T23:31:52.980Z,16.00
2022-07-27T23:34:20.119Z,16.00
2022-07-27T23:36:47.138Z,16.00
2022-07-27T23:39:14.102Z,15.90
2022-07-27T23:41:41.068Z,15.90
2022-07-27T23:44:08.029Z,15.90
2022-07-27T23:46:35.041Z,15.90
2022-07-27T23:49:02.361Z,15.90
2022-07-27T23:51:29.482Z,15.90
2022-07-27T23:53:56.520Z,15.90
2022-07-27T23:56:23.516Z,15.90
2022-07-27T23:58:50.491Z,15.80
